Time;durP1;ratioP1;P1;durP2;ratioP2;P2;SDS_P1;SDS_P2;PMS_P1;PMS_P2;Temp;Humidity;BMP_temperature;BMP_pressure;BME280_temperature;BME280_humidity;BME280_pressure;Samples;Min_cycle;Max_cycle;Signal;HPM_P1;HPM_P2
2023/02/26 00:01:16;;;;;;;4.30;1.58;;;-0.90;99.90;;;;;;4931750;29;20039;-77
2023/02/26 00:03:41;;;;;;;5.07;1.50;;;-0.80;99.90;;;;;;4903886;29;20030;-77
2023/02/26 00:06:08;;;;;;;6.97;2.20;;;-0.90;99.90;;;;;;4903932;29;20134;-78
2023/02/26 00:08:33;;;;;;;6.75;1.30;;;-0.90;99.90;;;;;;4902726;29;20039;-78
2023/02/26 00:11:02;;;;;;;4.78;1.13;;;-1.00;99.90;;;;;;4937558;29;20035;-77
2023/02/26 00:13:29;;;;;;;3.67;1.35;;;-1.00;99.90;;;;;;4901500;29;20035;-78
2023/02/26 00:15:57;;;;;;;4.70;2.08;;;-1.00;99.90;;;;;;4900717;29;20055;-77
2023/02/26 00:18:23;;;;;;;5.93;1.77;;;-1.10;99.90;;;;;;4901369;29;20123;-78
2023/02/26 00:20:49;;;;;;;6.88;1.88;;;-1.10;99.90;;;;;;4901188;29;20056;-78
2023/02/26 00:23:14;;;;;;;4.03;1.80;;;-1.20;99.90;;;;;;4903164;29;20023;-78
2023/02/26 00:25:40;;;;;;;4.22;1.58;;;-1.10;99.90;;;;;;4917047;29;20040;-77
2023/02/26 00:28:07;;;;;;;5.43;1.80;;;-1.10;99.90;;;;;;4915244;29;20023;-78
2023/02/26 00:30:33;;;;;;;3.33;1.13;;;-1.20;99.90;;;;;;4902334;29;20039;-78
2023/02/26 00:32:59;;;;;;;5.45;1.67;;;-1.10;99.90;;;;;;4920988;28;20396;-77
2023/02/26 00:35:25;;;;;;;6.00;1.38;;;-1.30;99.90;;;;;;4931631;29;20027;-78
2023/02/26 00:37:58;;;;;;;4.10;1.52;;;-1.20;99.90;;;;;;4914236;29;20508;-78
2023/02/26 00:40:43;;;;;;;5.68;1.50;;;-1.30;99.90;;;;;;4918598;29;20495;-77
2023/02/26 00:43:21;;;;;;;3.25;1.10;;;-1.20;99.90;;;;;;4918058;29;20050;-78
2023/02/26 00:46:11;;;;;;;10.02;1.58;;;-1.10;99.90;;;;;;4902228;29;20040;-77
2023/02/26 00:48:44;;;;;;;4.47;1.08;;;-1.20;99.90;;;;;;4931592;29;20038;-78
2023/02/26 00:51:21;;;;;;;5.70;1.50;;;-1.10;99.90;;;;;;4900889;29;20448;-78
2023/02/26 00:54:00;;;;;;;11.82;1.60;;;-1.20;99.90;;;;;;4932962;29;20038;-78
2023/02/26 00:56:25;;;;;;;7.40;2.05;;;-1.00;99.90;;;;;;4914946;29;20039;-78
2023/02/26 00:58:51;;;;;;;8.48;1.85;;;-1.00;99.90;;;;;;4915898;29;20032;-78
2023/02/26 01:01:16;;;;;;;3.45;1.15;;;-1.10;99.90;;;;;;4914761;29;20171;-78
2023/02/26 01:03:42;;;;;;;5.93;1.48;;;-1.10;99.90;;;;;;4915202;29;20090;-78
2023/02/26 01:06:12;;;;;;;4.78;1.35;;;-1.10;99.90;;;;;;4899596;29;20032;-78
2023/02/26 01:08:50;;;;;;;5.18;1.25;;;-1.00;99.90;;;;;;4898934;29;20047;-79
2023/02/26 01:11:16;;;;;;;6.00;1.65;;;-0.90;99.90;;;;;;4917777;29;20036;-78
2023/02/26 01:13:42;;;;;;;6.45;1.15;;;-0.90;99.90;;;;;;4903446;29;20043;-78
2023/02/26 01:16:10;;;;;;;2.20;0.90;;;-0.70;99.90;;;;;;4902088;29;20499;-78
2023/02/26 01:18:51;;;;;;;7.68;1.70;;;-0.80;99.90;;;;;;4919263;29;20067;-77
2023/02/26 01:21:19;;;;;;;2.22;1.08;;;-0.70;99.90;;;;;;4898998;29;20032;-78
2023/02/26 01:23:46;;;;;;;3.75;0.93;;;-0.60;99.90;;;;;;4897764;29;20532;-77
2023/02/26 01:26:19;;;;;;;2.80;1.08;;;-0.70;99.90;;;;;;4882023;29;20036;-78
2023/02/26 01:28:45;;;;;;;5.60;1.73;;;-0.60;99.90;;;;;;4896449;29;20032;-78
2023/02/26 01:31:34;;;;;;;6.30;1.13;;;-0.80;99.90;;;;;;4901038;29;20039;-77
2023/02/26 01:34:08;;;;;;;4.47;1.00;;;-0.70;99.90;;;;;;4914649;29;20035;-77
2023/02/26 01:36:38;;;;;;;1.48;0.73;;;-0.70;99.90;;;;;;4899223;29;20040;-77
2023/02/26 01:39:05;;;;;;;2.08;1.00;;;-0.70;99.90;;;;;;4883301;29;20451;-77
2023/02/26 01:41:31;;;;;;;9.90;1.25;;;-0.70;99.90;;;;;;4913296;29;20051;-76
2023/02/26 01:44:26;;;;;;;2.70;1.02;;;-0.70;99.90;;;;;;4914163;29;20039;-77
2023/02/26 01:47:15;;;;;;;7.72;0.85;;;-0.70;99.90;;;;;;4909739;29;20040;-78
2023/02/26 01:49:41;;;;;;;5.20;1.00;;;-0.80;99.90;;;;;;4898468;29;20090;-77
2023/02/26 01:52:45;;;;;;;6.95;1.40;;;-0.70;99.90;;;;;;4913235;29;20039;-79
2023/02/26 01:55:11;;;;;;;4.00;0.73;;;-0.80;99.90;;;;;;4930417;29;20070;-76
2023/02/26 01:57:36;;;;;;;8.40;1.25;;;-0.80;99.90;;;;;;4900734;29;20176;-77
2023/02/26 02:00:03;;;;;;;5.10;0.98;;;-0.80;99.90;;;;;;4897586;29;20039;-79
2023/02/26 02:02:29;;;;;;;3.60;0.90;;;-0.80;99.90;;;;;;4912260;29;20401;-77
2023/02/26 02:04:54;;;;;;;4.15;0.85;;;-0.80;99.90;;;;;;4897295;29;20047;-78
2023/02/26 02:07:30;;;;;;;2.83;0.70;;;-0.80;99.90;;;;;;5010365;27;20834;-79
2023/02/26 02:09:56;;;;;;;4.28;1.38;;;-1.00;99.90;;;;;;5004556;28;20029;-78
2023/02/26 02:12:24;;;;;;;5.05;1.05;;;-0.90;99.90;;;;;;4997381;28;20023;-78
2023/02/26 02:15:10;;;;;;;6.93;1.20;;;-0.90;99.90;;;;;;5013467;28;20085;-79
2023/02/26 02:18:03;;;;;;;8.23;1.15;;;-0.90;99.90;;;;;;4994495;28;20034;-77
2023/02/26 02:20:50;;;;;;;4.32;0.80;;;-1.00;99.90;;;;;;5018782;28;20034;-77
2023/02/26 02:23:37;;;;;;;5.50;1.15;;;-1.00;99.90;;;;;;4995411;28;20058;-77
2023/02/26 02:26:23;;;;;;;1.80;0.40;;;-0.90;99.90;;;;;;4994232;28;20444;-77
2023/02/26 02:29:07;;;;;;;4.47;0.80;;;-1.00;99.90;;;;;;5012854;28;20184;-78
2023/02/26 02:32:04;;;;;;;2.28;0.63;;;-1.10;99.90;;;;;;5013729;28;20033;-77
2023/02/26 02:34:46;;;;;;;13.05;1.48;;;-1.20;99.90;;;;;;5000303;28;20040;-78
2023/02/26 02:37:17;;;;;;;5.35;1.20;;;-1.20;99.90;;;;;;5011842;28;20626;-77
2023/02/26 02:39:49;;;;;;;5.30;0.98;;;-1.30;99.90;;;;;;5011248;28;20144;-77
2023/02/26 02:42:29;;;;;;;9.10;1.02;;;-1.30;99.90;;;;;;5025031;28;20033;-77
2023/02/26 02:45:19;;;;;;;2.33;0.93;;;-1.40;99.90;;;;;;5033892;28;20080;-77
2023/02/26 02:47:47;;;;;;;3.20;1.13;;;-1.40;99.90;;;;;;5033192;28;20061;-77
2023/02/26 02:50:21;;;;;;;3.08;0.77;;;-1.40;99.90;;;;;;5035519;28;20030;-76
2023/02/26 02:53:15;;;;;;;7.63;1.13;;;-1.50;99.90;;;;;;5029152;28;20494;-77
2023/02/26 02:56:00;;;;;;;4.80;1.30;;;-1.50;99.90;;;;;;5007686;28;20907;-78
2023/02/26 02:58:29;;;;;;;3.55;0.68;;;-1.50;99.90;;;;;;5004421;28;20110;-77
2023/02/26 03:00:58;;;;;;;4.88;1.00;;;-1.50;99.90;;;;;;5017100;28;20033;-76
2023/02/26 03:03:35;;;;;;;2.15;0.70;;;-1.60;99.90;;;;;;5016047;28;20037;-77
2023/02/26 03:06:01;;;;;;;3.28;1.00;;;-1.60;99.90;;;;;;5033923;28;20140;-77
2023/02/26 03:08:30;;;;;;;8.68;1.05;;;-1.60;99.90;;;;;;5029402;28;20038;-76
2023/02/26 03:10:55;;;;;;;5.05;0.90;;;-1.50;99.90;;;;;;5017849;28;20033;-77
2023/02/26 03:13:22;;;;;;;2.97;0.80;;;-1.50;99.90;;;;;;5015952;28;20033;-77
2023/02/26 03:16:12;;;;;;;5.60;0.98;;;-1.60;99.90;;;;;;5019602;28;20528;-77
2023/02/26 03:18:47;;;;;;;2.83;0.77;;;-1.80;99.90;;;;;;5020232;28;20037;-77
2023/02/26 03:21:18;;;;;;;3.22;0.90;;;-1.80;99.90;;;;;;5017090;28;20497;-77
2023/02/26 03:24:08;;;;;;;2.80;0.70;;;-1.90;99.90;;;;;;5018150;28;20037;-77
2023/02/26 03:26:41;;;;;;;2.67;0.60;;;-1.90;99.90;;;;;;5007147;28;20092;-78
2023/02/26 03:29:16;;;;;;;4.15;0.88;;;-1.90;99.90;;;;;;5001785;28;20092;-79
2023/02/26 03:31:44;;;;;;;3.05;0.98;;;-2.00;99.90;;;;;;5008131;28;20437;-77
2023/02/26 03:34:32;;;;;;;4.50;0.77;;;-2.00;99.90;;;;;;5019999;28;20129;-77
2023/02/26 03:37:01;;;;;;;3.78;0.70;;;-2.00;99.90;;;;;;5005014;28;20029;-77
2023/02/26 03:39:29;;;;;;;5.15;0.70;;;-2.00;99.90;;;;;;5015922;28;20044;-77
2023/02/26 03:42:05;;;;;;;13.20;3.45;;;-2.00;99.90;;;;;;5019987;28;20030;-77
2023/02/26 03:44:34;;;;;;;2.50;1.17;;;-2.00;99.90;;;;;;5009881;28;20037;-77
2023/02/26 03:47:05;;;;;;;6.97;0.90;;;-2.10;99.90;;;;;;5007794;28;20041;-76
2023/02/26 03:49:33;;;;;;;3.60;1.13;;;-2.10;99.90;;;;;;4988184;28;20036;-76
2023/02/26 03:51:59;;;;;;;5.80;1.23;;;-2.10;99.90;;;;;;5004379;28;20650;-76
2023/02/26 03:54:46;;;;;;;3.70;1.00;;;-2.10;99.90;;;;;;5007765;28;20041;-77
2023/02/26 03:57:11;;;;;;;5.47;0.90;;;-2.10;99.90;;;;;;5016784;28;20033;-77
2023/02/26 03:59:40;;;;;;;4.07;1.15;;;-2.20;99.90;;;;;;5018741;28;20080;-76
2023/02/26 04:02:24;;;;;;;2.53;1.25;;;-2.20;99.90;;;;;;5008660;28;20037;-77
2023/02/26 04:05:01;;;;;;;5.70;1.00;;;-2.30;99.90;;;;;;5015905;28;20060;-77
2023/02/26 04:07:27;;;;;;;9.10;1.25;;;-2.30;99.90;;;;;;5016003;28;20053;-77
2023/02/26 04:09:52;;;;;;;9.18;1.25;;;-2.30;99.90;;;;;;5017611;28;20029;-77
2023/02/26 04:12:27;;;;;;;6.20;1.30;;;-2.30;99.90;;;;;;5002965;28;20152;-77
2023/02/26 04:14:53;;;;;;;5.20;1.20;;;-2.40;99.90;;;;;;5003216;28;20104;-77
2023/02/26 04:17:19;;;;;;;5.97;1.20;;;-2.50;99.90;;;;;;5001565;28;20449;-76
2023/02/26 04:19:44;;;;;;;5.93;0.90;;;-2.40;99.90;;;;;;5015534;28;20060;-78
2023/02/26 04:22:10;;;;;;;4.72;1.00;;;-2.30;99.90;;;;;;5005214;28;20488;-78
2023/02/26 04:24:35;;;;;;;2.28;0.88;;;-2.40;99.90;;;;;;4999321;28;20116;-78
2023/02/26 04:27:02;;;;;;;4.97;1.00;;;-2.40;99.90;;;;;;5000470;28;20038;-78
2023/02/26 04:29:28;;;;;;;5.57;1.50;;;-2.50;99.90;;;;;;5005449;28;20049;-78
2023/02/26 04:31:53;;;;;;;5.20;1.40;;;-2.40;99.90;;;;;;5003553;28;20743;-78
2023/02/26 04:34:19;;;;;;;7.18;1.20;;;-2.50;99.90;;;;;;5020651;28;20405;-78
2023/02/26 04:36:44;;;;;;;1.92;0.90;;;-2.60;99.90;;;;;;5017562;28;20084;-78
2023/02/26 04:39:10;;;;;;;2.80;1.20;;;-2.50;99.90;;;;;;5018687;28;20036;-78
2023/02/26 04:41:36;;;;;;;7.32;1.40;;;-2.50;99.90;;;;;;5003445;28;20038;-78
2023/02/26 04:44:02;;;;;;;5.22;0.95;;;-2.50;99.90;;;;;;5006785;28;20033;-78
2023/02/26 04:46:28;;;;;;;7.82;1.75;;;-2.50;99.90;;;;;;5012719;28;20038;-78
2023/02/26 04:48:54;;;;;;;2.28;1.17;;;-2.60;99.90;;;;;;4991317;28;20034;-78
2023/02/26 04:51:19;;;;;;;6.68;1.33;;;-2.50;99.90;;;;;;5001637;28;20037;-78
2023/02/26 04:53:45;;;;;;;5.03;0.95;;;-2.40;99.90;;;;;;4998111;28;20045;-78
2023/02/26 04:56:10;;;;;;;5.88;1.40;;;-2.40;99.90;;;;;;5006570;28;20478;-78
2023/02/26 04:58:36;;;;;;;5.70;1.10;;;-2.30;99.90;;;;;;5014834;28;20299;-78
2023/02/26 05:01:01;;;;;;;7.47;1.15;;;-2.30;99.90;;;;;;4999747;28;20868;-77
2023/02/26 05:03:27;;;;;;;5.18;1.02;;;-2.40;99.90;;;;;;5002191;28;20378;-78
2023/02/26 05:05:53;;;;;;;6.95;1.05;;;-2.50;99.90;;;;;;5016949;28;20519;-78
2023/02/26 05:08:18;;;;;;;5.18;0.93;;;-2.60;99.90;;;;;;4990037;28;20045;-78
2023/02/26 05:10:44;;;;;;;4.25;0.70;;;-2.50;99.90;;;;;;5002573;28;20033;-77
2023/02/26 05:13:10;;;;;;;4.22;0.98;;;-2.50;99.90;;;;;;5020112;28;20040;-78
2023/02/26 05:15:35;;;;;;;4.68;1.08;;;-2.50;99.90;;;;;;4989245;28;20406;-78
2023/02/26 05:18:01;;;;;;;12.98;1.55;;;-2.60;99.90;;;;;;5005431;28;20057;-78
2023/02/26 05:20:26;;;;;;;3.00;0.85;;;-2.70;99.90;;;;;;5003939;28;20034;-77
2023/02/26 05:22:52;;;;;;;4.20;0.77;;;-2.70;99.90;;;;;;5002734;28;20033;-78
2023/02/26 05:25:17;;;;;;;3.38;1.30;;;-2.60;99.90;;;;;;5003114;28;20057;-78
2023/02/26 05:27:43;;;;;;;5.53;1.05;;;-2.80;99.90;;;;;;5001896;28;20026;-78
2023/02/26 05:30:10;;;;;;;7.85;1.00;;;-2.60;99.90;;;;;;5003608;28;20025;-77
2023/02/26 05:32:36;;;;;;;6.47;1.15;;;-2.70;99.90;;;;;;5019425;28;20031;-78
2023/02/26 05:35:02;;;;;;;5.93;1.00;;;-2.70;99.90;;;;;;5020074;28;20112;-78
2023/02/26 05:37:27;;;;;;;5.88;0.80;;;-2.70;99.90;;;;;;5002480;28;20064;-78
2023/02/26 05:39:53;;;;;;;4.95;1.35;;;-2.80;99.90;;;;;;5000523;28;20065;-76
2023/02/26 05:42:18;;;;;;;5.78;1.33;;;-2.80;99.90;;;;;;5003013;28;20058;-77
2023/02/26 05:44:44;;;;;;;5.50;1.40;;;-2.80;99.90;;;;;;5020895;28;20034;-78
2023/02/26 05:47:10;;;;;;;5.15;0.90;;;-2.80;99.90;;;;;;4989428;28;20045;-78
2023/02/26 05:49:35;;;;;;;1.80;0.70;;;-2.90;99.90;;;;;;4999468;28;20034;-78
2023/02/26 05:52:01;;;;;;;5.15;1.13;;;-2.70;99.90;;;;;;5012074;28;20112;-78
2023/02/26 05:54:27;;;;;;;2.03;0.95;;;-2.70;99.90;;;;;;4986403;28;20042;-77
2023/02/26 05:56:53;;;;;;;2.20;1.30;;;-2.90;99.90;;;;;;4999153;28;20038;-76
2023/02/26 05:59:18;;;;;;;3.72;1.10;;;-2.90;99.90;;;;;;5002028;28;20183;-78
2023/02/26 06:01:44;;;;;;;4.55;1.15;;;-2.90;99.90;;;;;;5010957;28;20502;-77
2023/02/26 06:04:09;;;;;;;3.13;1.02;;;-2.80;99.90;;;;;;5004294;28;20058;-77
2023/02/26 06:06:35;;;;;;;3.38;1.10;;;-2.70;99.90;;;;;;5003165;28;20037;-77
2023/02/26 06:09:01;;;;;;;4.82;0.85;;;-2.80;99.90;;;;;;5004190;28;20073;-77
2023/02/26 06:11:28;;;;;;;2.03;0.68;;;-2.70;99.90;;;;;;5000085;28;20440;-77
2023/02/26 06:13:54;;;;;;;6.82;1.20;;;-2.70;99.90;;;;;;5017784;28;20358;-77
2023/02/26 06:16:19;;;;;;;6.35;1.20;;;-2.90;99.90;;;;;;5000710;28;20038;-77
2023/02/26 06:18:45;;;;;;;5.53;1.08;;;-2.90;99.90;;;;;;5015261;28;20037;-77
2023/02/26 06:21:11;;;;;;;3.47;1.08;;;-3.10;99.90;;;;;;4989698;28;20037;-77
2023/02/26 06:23:37;;;;;;;11.20;1.40;;;-3.10;99.90;;;;;;5014456;28;20065;-77
2023/02/26 06:26:03;;;;;;;5.60;0.93;;;-3.10;99.90;;;;;;5000674;28;20029;-77
2023/02/26 06:28:28;;;;;;;3.03;1.10;;;-3.00;99.90;;;;;;5015250;28;20041;-77
2023/02/26 06:30:54;;;;;;;2.58;0.90;;;-2.90;99.90;;;;;;4997925;28;20022;-76
2023/02/26 06:33:19;;;;;;;7.93;1.35;;;-3.10;99.90;;;;;;5021218;28;20036;-77
2023/02/26 06:35:45;;;;;;;5.35;0.90;;;-3.10;99.90;;;;;;5019096;28;20037;-77
2023/02/26 06:38:10;;;;;;;3.75;1.20;;;-3.10;99.90;;;;;;5000839;28;20410;-78
2023/02/26 06:40:36;;;;;;;3.28;1.10;;;-3.10;99.90;;;;;;5016632;28;20037;-77
2023/02/26 06:43:01;;;;;;;4.35;1.08;;;-3.20;99.90;;;;;;5015579;28;20374;-78
2023/02/26 06:45:27;;;;;;;7.90;1.17;;;-3.20;99.90;;;;;;5015945;28;20033;-77
2023/02/26 06:47:54;;;;;;;5.82;0.85;;;-3.20;99.90;;;;;;4996634;28;20026;-77
2023/02/26 06:50:19;;;;;;;4.22;1.40;;;-3.00;99.90;;;;;;4999549;28;20038;-76
2023/02/26 06:52:45;;;;;;;7.57;1.30;;;-3.10;99.90;;;;;;5002040;28;20040;-77
2023/02/26 06:55:10;;;;;;;6.07;1.00;;;-3.00;99.90;;;;;;5001239;28;20064;-77
2023/02/26 06:57:36;;;;;;;2.30;0.82;;;-2.60;99.90;;;;;;4999353;28;20041;-77
2023/02/26 07:00:03;;;;;;;9.60;1.35;;;-3.20;99.90;;;;;;5016640;28;20591;-77
2023/02/26 07:02:28;;;;;;;9.52;1.20;;;-3.00;99.90;;;;;;5004462;28;20512;-77
2023/02/26 07:04:54;;;;;;;2.55;1.10;;;-3.10;99.90;;;;;;5005691;28;20026;-78
2023/02/26 07:07:19;;;;;;;8.85;1.63;;;-2.90;99.90;;;;;;4992880;28;20064;-78
2023/02/26 07:09:45;;;;;;;6.57;1.15;;;-2.90;99.90;;;;;;5006249;28;20096;-78
2023/02/26 07:12:10;;;;;;;5.63;1.50;;;-2.80;99.90;;;;;;5002286;28;20030;-78
2023/02/26 07:14:36;;;;;;;4.57;1.13;;;-2.70;99.90;;;;;;5011150;28;20041;-77
2023/02/26 07:17:02;;;;;;;3.47;1.38;;;-2.80;99.90;;;;;;5006231;28;20030;-78
2023/02/26 07:19:27;;;;;;;8.05;1.27;;;-2.70;99.90;;;;;;4996681;28;20034;-78
2023/02/26 07:21:53;;;;;;;5.40;2.05;;;-2.90;99.90;;;;;;4991325;28;20049;-77
2023/02/26 07:24:20;;;;;;;6.75;1.40;;;-2.90;99.90;;;;;;5005223;28;20048;-77
2023/02/26 07:26:45;;;;;;;7.80;1.63;;;-2.90;99.90;;;;;;4991400;28;20080;-78
2023/02/26 07:29:11;;;;;;;5.18;1.20;;;-3.00;99.90;;;;;;5004473;28;20697;-78
2023/02/26 07:31:36;;;;;;;8.38;1.40;;;-3.10;99.90;;;;;;5002834;28;20062;-78
2023/02/26 07:34:02;;;;;;;4.03;1.15;;;-3.00;99.90;;;;;;5004226;28;20037;-79
2023/02/26 07:36:27;;;;;;;8.02;1.67;;;-2.90;99.90;;;;;;4992792;28;20547;-78
2023/02/26 07:38:53;;;;;;;4.97;1.65;;;-2.60;99.90;;;;;;5015438;28;20056;-78
2023/02/26 07:41:19;;;;;;;4.15;1.17;;;-2.80;99.90;;;;;;4999951;28;20386;-78
2023/02/26 07:43:45;;;;;;;5.40;1.10;;;-2.80;99.90;;;;;;5001682;28;20033;-78
2023/02/26 07:46:11;;;;;;;4.40;1.38;;;-2.70;99.90;;;;;;4979469;28;20117;-78
2023/02/26 07:48:36;;;;;;;5.22;1.83;;;-2.60;99.90;;;;;;4994925;28;20443;-78
2023/02/26 07:51:02;;;;;;;5.00;1.20;;;-2.60;99.90;;;;;;4980591;28;20568;-78
2023/02/26 07:53:28;;;;;;;5.95;1.30;;;-2.50;99.90;;;;;;4974429;28;20456;-78
2023/02/26 07:55:53;;;;;;;5.35;1.10;;;-2.40;99.90;;;;;;4961082;28;20505;-77
2023/02/26 07:58:19;;;;;;;2.97;1.40;;;-2.30;99.90;;;;;;4957407;28;20068;-78
2023/02/26 08:00:44;;;;;;;8.65;1.30;;;-2.20;99.90;;;;;;4969227;28;20520;-78
2023/02/26 08:03:10;;;;;;;5.00;1.25;;;-2.10;99.90;;;;;;4975254;28;20029;-77
2023/02/26 08:05:35;;;;;;;3.58;1.50;;;-2.00;99.90;;;;;;4970000;28;20046;-78
2023/02/26 08:08:02;;;;;;;3.67;1.23;;;-1.80;99.90;;;;;;4967690;28;20030;-78
2023/02/26 08:10:28;;;;;;;3.35;1.33;;;-1.90;99.90;;;;;;4992211;28;20120;-78
2023/02/26 08:12:53;;;;;;;4.97;1.20;;;-2.00;99.90;;;;;;5001615;28;20113;-77
2023/02/26 08:15:19;;;;;;;5.07;1.38;;;-2.00;99.90;;;;;;4974193;28;20034;-77
2023/02/26 08:17:44;;;;;;;2.80;0.90;;;-2.00;99.90;;;;;;4992540;28;20104;-78
2023/02/26 08:20:11;;;;;;;2.80;1.27;;;-1.80;99.90;;;;;;4975085;28;20141;-78
2023/02/26 08:22:37;;;;;;;5.05;1.23;;;-1.70;99.90;;;;;;4999993;28;20493;-78
2023/02/26 08:25:03;;;;;;;4.93;1.73;;;-1.80;99.90;;;;;;4991738;28;20063;-78
2023/02/26 08:27:29;;;;;;;5.47;1.40;;;-1.90;99.90;;;;;;4990272;28;20041;-78
2023/02/26 08:29:54;;;;;;;3.35;1.35;;;-1.70;99.90;;;;;;5004429;28;20071;-78
2023/02/26 08:32:25;;;;;;;6.22;1.13;;;-1.70;99.90;;;;;;4999457;28;20120;-78
2023/02/26 08:34:51;;;;;;;5.22;1.33;;;-1.40;99.90;;;;;;5004903;28;20034;-78
2023/02/26 08:37:16;;;;;;;11.35;1.33;;;-1.60;99.90;;;;;;4995424;28;20097;-79
2023/02/26 08:39:42;;;;;;;5.82;1.42;;;-1.50;99.90;;;;;;5017151;28;20029;-78
2023/02/26 08:42:08;;;;;;;2.33;1.00;;;-1.40;99.90;;;;;;4990771;28;20030;-78
2023/02/26 08:44:34;;;;;;;4.20;1.05;;;-1.20;99.90;;;;;;5014848;28;20113;-78
2023/02/26 08:46:59;;;;;;;2.22;1.10;;;-1.20;99.90;;;;;;5014316;28;20091;-78
2023/02/26 08:49:25;;;;;;;2.95;1.08;;;-1.40;99.90;;;;;;5017667;28;20042;-78
2023/02/26 08:51:50;;;;;;;3.35;1.15;;;-1.40;99.90;;;;;;5015135;28;20033;-79
2023/02/26 08:54:16;;;;;;;3.50;1.20;;;-0.90;99.90;;;;;;5017951;28;20043;-78
2023/02/26 08:56:41;;;;;;;4.97;1.38;;;-0.80;99.90;;;;;;4988540;28;20399;-78
2023/02/26 08:59:08;;;;;;;1.85;1.30;;;-1.00;99.90;;;;;;4973822;28;20053;-78
2023/02/26 09:01:34;;;;;;;4.70;1.15;;;-0.90;99.90;;;;;;4983474;28;20091;-76
2023/02/26 09:03:59;;;;;;;6.00;1.00;;;-0.80;99.90;;;;;;5006591;28;20493;-76
2023/02/26 09:06:25;;;;;;;5.43;1.02;;;-0.90;99.90;;;;;;5002173;28;20072;-76
2023/02/26 09:08:51;;;;;;;1.65;0.77;;;-0.70;99.90;;;;;;5009438;28;20061;-77
2023/02/26 09:11:16;;;;;;;4.20;0.82;;;-0.60;99.90;;;;;;5009558;28;20034;-77
2023/02/26 09:13:42;;;;;;;2.13;0.70;;;-0.50;99.90;;;;;;4990830;28;20038;-77
2023/02/26 09:16:07;;;;;;;5.45;1.10;;;-0.40;99.90;;;;;;5004951;28;20524;-76
2023/02/26 09:18:33;;;;;;;6.43;1.33;;;-0.30;99.90;;;;;;5003096;28;20045;-76
2023/02/26 09:20:58;;;;;;;4.68;1.08;;;-0.30;99.90;;;;;;5003531;28;20072;-77
2023/02/26 09:23:24;;;;;;;5.20;0.98;;;-0.40;99.90;;;;;;4972101;28;20038;-77
2023/02/26 09:25:53;;;;;;;1.80;0.82;;;-0.40;99.90;;;;;;4981462;28;20128;-77
2023/02/26 09:28:20;;;;;;;5.60;1.00;;;0.10;99.90;;;;;;4995115;28;20057;-77
2023/02/26 09:30:45;;;;;;;4.22;0.80;;;0.40;99.90;;;;;;4974036;28;20022;-78
2023/02/26 09:33:11;;;;;;;2.60;1.15;;;0.60;99.90;;;;;;4982342;28;20552;-78
2023/02/26 09:35:36;;;;;;;1.00;0.60;;;0.20;99.90;;;;;;4989644;28;20389;-78
2023/02/26 09:38:02;;;;;;;7.55;0.90;;;-0.10;99.90;;;;;;4989789;28;21193;-78
2023/02/26 09:40:46;;;;;;;9.60;1.20;;;0.10;99.90;;;;;;5001667;28;20048;-78
2023/02/26 09:43:27;;;;;;;5.20;0.80;;;0.10;99.90;;;;;;5005444;28;20036;-77
2023/02/26 09:45:52;;;;;;;4.78;1.08;;;0.20;99.90;;;;;;4994995;28;20429;-78
2023/02/26 09:48:19;;;;;;;1.92;0.93;;;0.30;99.90;;;;;;4995709;28;20800;-77
2023/02/26 09:50:52;;;;;;;5.57;1.02;;;0.20;99.90;;;;;;4984381;28;20112;-79
2023/02/26 09:53:33;;;;;;;3.97;0.80;;;0.30;99.90;;;;;;5007904;28;20033;-78
2023/02/26 09:56:11;;;;;;;2.65;0.70;;;0.50;99.90;;;;;;4987284;28;20520;-78
2023/02/26 09:58:38;;;;;;;2.35;0.90;;;0.80;99.90;;;;;;4985179;28;20030;-78
2023/02/26 10:01:12;;;;;;;3.60;1.08;;;0.80;99.90;;;;;;5003846;28;20034;-78
2023/02/26 10:03:43;;;;;;;2.38;0.88;;;0.90;99.90;;;;;;4987438;28;20045;-78
2023/02/26 10:06:22;;;;;;;4.53;0.88;;;0.90;99.90;;;;;;5002587;28;20049;-78
2023/02/26 10:09:10;;;;;;;3.45;1.08;;;0.90;99.90;;;;;;5006651;28;20566;-78
2023/02/26 10:11:39;;;;;;;4.32;1.00;;;0.80;99.90;;;;;;5004035;28;20563;-78
2023/02/26 10:14:31;;;;;;;2.55;0.70;;;0.90;99.90;;;;;;5000929;28;20021;-78
2023/02/26 10:16:59;;;;;;;3.75;1.30;;;1.10;99.90;;;;;;5002913;28;20038;-78
2023/02/26 10:19:32;;;;;;;2.58;1.02;;;1.10;99.90;;;;;;4979063;28;20132;-76
2023/02/26 10:22:02;;;;;;;1.33;0.50;;;1.10;99.90;;;;;;4998597;28;20505;-77
2023/02/26 10:24:43;;;;;;;3.70;1.00;;;1.30;99.90;;;;;;4986904;28;20064;-77
2023/02/26 10:27:14;;;;;;;2.22;0.68;;;1.40;99.90;;;;;;4987686;28;20046;-77
2023/02/26 10:30:01;;;;;;;2.80;0.63;;;1.40;99.90;;;;;;5007702;28;20041;-78
2023/02/26 10:32:37;;;;;;;5.90;1.00;;;1.50;99.90;;;;;;4993006;28;20378;-77
2023/02/26 10:35:12;;;;;;;6.80;1.05;;;2.00;99.90;;;;;;5000817;28;20025;-77
2023/02/26 10:37:37;;;;;;;3.83;1.02;;;1.80;99.90;;;;;;5003887;28;20041;-77
2023/02/26 10:40:16;;;;;;;5.80;0.80;;;2.10;99.90;;;;;;5011190;28;20401;-76
2023/02/26 10:42:45;;;;;;;3.83;0.70;;;2.00;99.90;;;;;;4994986;28;20104;-77
2023/02/26 10:45:35;;;;;;;3.70;0.45;;;2.30;99.90;;;;;;4990198;28;20029;-76
2023/02/26 10:48:23;;;;;;;3.45;0.88;;;2.50;99.90;;;;;;5012314;28;20069;-76
2023/02/26 10:50:53;;;;;;;5.28;0.95;;;2.60;99.90;;;;;;4998723;28;20083;-78
2023/02/26 10:53:22;;;;;;;3.97;0.70;;;2.80;99.90;;;;;;4996120;28;20036;-78
2023/02/26 10:55:50;;;;;;;3.15;0.60;;;2.90;99.90;;;;;;5014601;28;20034;-78
2023/02/26 10:58:18;;;;;;;2.78;0.82;;;2.80;99.90;;;;;;5008419;28;20410;-78
2023/02/26 11:00:45;;;;;;;1.65;0.60;;;2.90;99.90;;;;;;4990864;28;20146;-78
2023/02/26 11:03:40;;;;;;;3.95;1.00;;;3.00;99.90;;;;;;4983699;28;20582;-78
2023/02/26 11:06:06;;;;;;;5.22;0.80;;;2.90;99.90;;;;;;5009354;28;20128;-77
2023/02/26 11:08:41;;;;;;;1.33;0.70;;;3.00;99.90;;;;;;5009740;28;20163;-78
2023/02/26 11:11:06;;;;;;;3.35;0.73;;;3.00;99.90;;;;;;5007239;28;20274;-78
2023/02/26 11:13:33;;;;;;;2.80;0.60;;;2.80;99.90;;;;;;4986455;28;20042;-78
2023/02/26 11:16:20;;;;;;;2.35;0.50;;;2.70;99.90;;;;;;4990058;28;20042;-78
2023/02/26 11:18:52;;;;;;;3.22;0.55;;;2.80;99.90;;;;;;4983501;28;20506;-78
2023/02/26 11:21:23;;;;;;;3.13;0.82;;;2.80;99.90;;;;;;5003961;28;20045;-78
2023/02/26 11:23:49;;;;;;;2.47;0.60;;;2.90;99.90;;;;;;4987687;28;20049;-78
2023/02/26 11:26:18;;;;;;;3.75;0.98;;;2.90;99.90;;;;;;5000002;28;20038;-77
2023/02/26 11:28:48;;;;;;;3.17;1.00;;;2.80;99.90;;;;;;4994593;28;20437;-77
2023/02/26 11:31:18;;;;;;;2.67;0.90;;;2.80;99.90;;;;;;5006562;28;20032;-77
2023/02/26 11:33:48;;;;;;;2.70;0.80;;;3.00;99.90;;;;;;4972479;28;20117;-77
2023/02/26 11:36:18;;;;;;;3.30;0.57;;;3.20;99.90;;;;;;5007149;28;20047;-77
2023/02/26 11:38:45;;;;;;;2.65;0.70;;;3.10;99.90;;;;;;5002801;28;20041;-77
2023/02/26 11:41:11;;;;;;;3.10;0.95;;;2.80;99.90;;;;;;5006685;28;20057;-78
2023/02/26 11:43:41;;;;;;;2.15;0.85;;;3.20;99.90;;;;;;5013783;28;20033;-77
2023/02/26 11:46:07;;;;;;;2.08;0.98;;;3.10;99.90;;;;;;5000882;28;20045;-77
2023/02/26 11:48:44;;;;;;;1.98;0.65;;;3.10;99.90;;;;;;5006819;28;20564;-78
2023/02/26 11:51:13;;;;;;;4.57;0.80;;;2.80;99.90;;;;;;5005378;28;20034;-78
2023/02/26 11:53:47;;;;;;;4.47;0.80;;;3.00;99.90;;;;;;5020544;28;20030;-78
2023/02/26 11:56:18;;;;;;;2.38;0.75;;;3.00;99.90;;;;;;4987156;28;20110;-78
2023/02/26 11:58:45;;;;;;;1.20;0.65;;;2.90;99.90;;;;;;5004555;28;20088;-77
2023/02/26 12:01:12;;;;;;;5.10;0.60;;;2.90;99.90;;;;;;4998976;28;20041;-77
2023/02/26 12:03:41;;;;;;;2.60;0.80;;;2.90;99.90;;;;;;5022658;28;20030;-78
2023/02/26 12:06:16;;;;;;;3.85;1.00;;;3.00;99.90;;;;;;5017679;28;20046;-78
2023/02/26 12:08:42;;;;;;;3.10;0.80;;;3.00;99.90;;;;;;5006518;28;20038;-77
2023/02/26 12:11:24;;;;;;;2.67;0.60;;;3.00;99.90;;;;;;5008958;28;20076;-77
2023/02/26 12:14:09;;;;;;;5.50;0.63;;;2.80;99.90;;;;;;5013089;28;20044;-77
2023/02/26 12:17:06;;;;;;;1.65;0.90;;;2.80;99.90;;;;;;5016237;28;20429;-77
2023/02/26 12:20:13;;;;;;;1.67;0.77;;;2.90;99.90;;;;;;4315756;28;10000035;-77
2023/02/26 12:23:06;;;;;;;2.10;0.60;;;2.80;99.90;;;;;;5024322;28;20026;-78
2023/02/26 12:25:56;;;;;;;2.10;0.93;;;3.10;99.90;;;;;;5011196;28;20052;-77
2023/02/26 12:28:33;;;;;;;4.78;0.60;;;2.80;99.90;;;;;;5018897;28;20060;-77
2023/02/26 12:31:01;;;;;;;5.65;1.00;;;2.80;99.90;;;;;;5011935;28;20029;-77
2023/02/26 12:33:53;;;;;;;4.20;1.13;;;2.90;99.90;;;;;;5012060;28;20036;-77
2023/02/26 12:36:29;;;;;;;3.78;0.93;;;2.80;99.90;;;;;;4992806;28;20040;-77
2023/02/26 12:39:17;;;;;;;0.60;0.37;;;3.00;99.90;;;;;;5006685;28;20034;-77
2023/02/26 12:41:55;;;;;;;1.67;0.57;;;2.90;99.90;;;;;;5006839;28;20277;-77
2023/02/26 12:44:54;;;;;;;2.88;0.80;;;3.00;99.90;;;;;;5005240;28;20384;-77
2023/02/26 12:47:41;;;;;;;3.28;0.57;;;2.90;99.90;;;;;;4994112;28;20045;-77
2023/02/26 12:50:44;;;;;;;1.50;0.65;;;2.80;99.90;;;;;;5005899;28;20029;-77
2023/02/26 12:53:28;;;;;;;2.92;0.82;;;2.90;99.90;;;;;;5006532;28;20558;-76
2023/02/26 12:56:02;;;;;;;1.30;0.57;;;3.00;99.90;;;;;;5000093;28;20041;-78
2023/02/26 12:58:44;;;;;;;1.35;0.70;;;2.90;99.90;;;;;;4999219;28;20058;-78
2023/02/26 13:01:26;;;;;;;1.15;0.45;;;3.20;99.90;;;;;;5014252;28;20607;-77
2023/02/26 13:04:18;;;;;;;1.30;0.65;;;3.20;99.90;;;;;;4977735;28;20033;-78
2023/02/26 13:07:11;;;;;;;2.20;0.60;;;3.10;99.90;;;;;;4965044;28;20941;-77
2023/02/26 13:10:09;;;;;;;1.95;0.50;;;3.70;99.90;;;;;;4963645;28;20037;-78